Columbia — WDD6400 — position and weather

sailwx.info

Track history (hours):
 
Tides and Currents Weather Stations Pressure Air Temp Water Temp Dewpoint Dewpoint Depression Visibility Wind Speed Wind Dir Waves Ship Positions

Columbia

Owner: OSG Ship Management Inc., Tampa, FL. More information available from US FCC via Universal Licensing System and Coast Guard Vessel Documentation Center.

Last reported at 2017-Jun-20 04:54 UTC. Time now 2017-Jun-26 15:31 UTC.
Position N 29°52' W 093°56'.

Length 194 m; draft 7.9 m.

Type: Towing. MMSI: 367172440.

Date/timePositionNaut miles runAvg speedWind from/ knotsBaromVisibWave heightAir tempDewpointWater temp
2017-Jun-20 04:54N 29°52' W 093°56'  
2017-Jun-13 07:13N 25°36' W 080°02'2 7.8
2017-Jun-13 07:00N 25°38' W 080°02'4 7.9
2017-Jun-13 06:30N 25°42' W 080°03'4 7.5
2017-Jun-13 06:01N 25°46' W 080°03'4 7.5
2017-Jun-13 05:31N 25°49' W 080°03'4 7.7
2017-Jun-13 05:00N 25°53' W 080°03'4 7.7
2017-Jun-13 04:30N 25°57' W 080°04'4 7.9
2017-Jun-13 04:01N 26°01' W 080°04'4 8.3
2017-Jun-13 03:31N 26°05' W 080°05'2 4.8
2017-Jun-13 03:01N 26°06' W 080°07'0 0.0
2017-Jun-13 02:30N 26°06' W 080°07'0 0.0
2017-Jun-13 02:00N 26°06' W 080°07'0 0.0
2017-Jun-13 01:30N 26°06' W 080°07'0 0.0
2017-Jun-13 01:00N 26°06' W 080°07'0 0.0
2017-Jun-13 00:30N 26°06' W 080°07'0 0.0
2017-Jun-13 00:00N 26°06' W 080°07'0 0.0
2017-Jun-12 23:30N 26°06' W 080°07'0 0.0
2017-Jun-12 23:00N 26°06' W 080°07'0 0.0
2017-Jun-12 22:30N 26°06' W 080°07'0 0.0
2017-Jun-12 22:00N 26°06' W 080°07'0 0.0
2017-Jun-12 21:30N 26°06' W 080°07'0 0.0
2017-Jun-12 21:00N 26°06' W 080°07'0 0.0
2017-Jun-12 20:29N 26°06' W 080°07'0 0.0
2017-Jun-12 19:59N 26°06' W 080°07'0 0.0
2017-Jun-12 19:29N 26°06' W 080°07'0 0.0
2017-Jun-12 18:59N 26°06' W 080°07'0 0.0
2017-Jun-12 18:29N 26°06' W 080°07'0 0.0
2017-Jun-12 17:59N 26°06' W 080°07'0 0.0
2017-Jun-12 17:29N 26°06' W 080°07'0 0.0
2017-Jun-12 16:59N 26°06' W 080°07'0 0.0
2017-Jun-12 16:29N 26°06' W 080°07'0 0.0
2017-Jun-12 15:59N 26°06' W 080°07'0 0.0
2017-Jun-12 15:29N 26°06' W 080°07'0 0.0
2017-Jun-12 14:59N 26°06' W 080°07'0 0.0
2017-Jun-12 14:29N 26°06' W 080°07'0 0.0
2017-Jun-12 13:23N 26°06' W 080°07'0 0.0
2017-Jun-12 12:53N 26°06' W 080°07'0 0.0
2017-Jun-12 12:23N 26°06' W 080°07'0 0.0
2017-Jun-12 11:53N 26°06' W 080°07'0 0.0
2017-Jun-12 11:23N 26°06' W 080°07'0 0.0
2017-Jun-12 10:56N 26°06' W 080°07'0 0.0
2017-Jun-12 10:26N 26°06' W 080°07'0 0.0
2017-Jun-12 09:56N 26°06' W 080°07'0 0.0
2017-Jun-12 09:26N 26°06' W 080°07'0 0.0
2017-Jun-12 08:56N 26°06' W 080°07'0 0.0
2017-Jun-12 08:26N 26°06' W 080°07'0 0.0
2017-Jun-12 07:56N 26°06' W 080°07'0 0.0
2017-Jun-12 07:26N 26°06' W 080°07'0 0.0
2017-Jun-12 06:59N 26°06' W 080°07'0 0.0
2017-Jun-12 06:29N 26°06' W 080°07'0 0.0
2017-Jun-12 05:59N 26°06' W 080°07'0 0.0
2017-Jun-12 05:29N 26°06' W 080°07'0 0.0
2017-Jun-12 04:56N 26°06' W 080°07'0 0.0
2017-Jun-12 04:29N 26°06' W 080°07'0 0.0
2017-Jun-12 03:59N 26°06' W 080°07'0 0.0
2017-Jun-12 03:29N 26°06' W 080°07'0 0.0
2017-Jun-12 03:01N 26°06' W 080°07'0 0.3
2017-Jun-12 02:31N 26°06' W 080°07'2 3.3
2017-Jun-12 02:01N 26°06' W 080°05'2 3.8
2017-Jun-12 01:31N 26°07' W 080°04'0 0.3
2017-Jun-12 00:58N 26°07' W 080°05'0 0.0
2017-Jun-12 00:28N 26°07' W 080°05'0 0.0
2017-Jun-11 23:58N 26°07' W 080°05'0 0.0
2017-Jun-11 23:28N 26°07' W 080°05'0 0.0
2017-Jun-11 22:58N 26°07' W 080°05'0 0.0
2017-Jun-11 22:16N 26°07' W 080°05'0 0.0
2017-Jun-11 21:58N 26°07' W 080°05'0 0.0
2017-Jun-11 21:31N 26°07' W 080°05'0 0.0
2017-Jun-11 21:01N 26°07' W 080°05'0 0.0
2017-Jun-11 20:31N 26°07' W 080°05'0 0.0
2017-Jun-11 20:01N 26°07' W 080°05'0 0.0
2017-Jun-11 19:30N 26°07' W 080°05'0 0.0
2017-Jun-11 19:00N 26°07' W 080°05'0 0.1
2017-Jun-11 18:30N 26°07' W 080°04'0 0.0
2017-Jun-11 18:00N 26°07' W 080°04'0 0.0
2017-Jun-11 17:30N 26°07' W 080°04'0 0.0
2017-Jun-11 17:00N 26°07' W 080°05'0 0.0
2017-Jun-11 16:30N 26°07' W 080°05'0 0.0
2017-Jun-11 16:00N 26°07' W 080°05'0 0.1
2017-Jun-11 15:30N 26°07' W 080°05'0 0.1
2017-Jun-11 15:00N 26°07' W 080°05'0 0.0
2017-Jun-11 14:00N 26°07' W 080°05'0 0.1
2017-Jun-11 13:30N 26°07' W 080°05'0 0.5
2017-Jun-11 13:00N 26°08' W 080°05'3 5.6
2017-Jun-11 12:30N 26°10' W 080°03'611.1
2017-Jun-11 12:00N 26°15' W 080°01'510.9
2017-Jun-11 11:31N 26°21' W 080°00'611.2
2017-Jun-11 11:00N 26°26' W 080°00'27 9.1
2017-Jun-11 08:01N 26°53' W 079°58'1 9.9
2017-Jun-11 07:57N 26°54' W 079°58'410.0
2017-Jun-11 07:31N 26°58' W 079°58'  
Track history (hours):
 
Tides and Currents Weather Stations Pressure Air Temp Water Temp Dewpoint Dewpoint Depression Visibility Wind Speed Wind Dir Waves Ship Positions

Columbia

Owner: OSG Ship Management Inc., Tampa, FL. More information available from US FCC via Universal Licensing System and Coast Guard Vessel Documentation Center.

Last reported at 2017-Jun-20 04:54 UTC. Time now 2017-Jun-26 15:31 UTC.
Position N 29°52' W 093°56'.

Length 194 m; draft 7.9 m.

Type: Towing. MMSI: 367172440.

Date/timePositionNaut miles runAvg speedWind from/ knotsBaromVisibWave heightAir tempDewpointWater temp
2017-Jun-20 04:54N 29°52' W 093°56'  
2017-Jun-13 07:13N 25°36' W 080°02'2 7.8
2017-Jun-13 07:00N 25°38' W 080°02'4 7.9
2017-Jun-13 06:30N 25°42' W 080°03'4 7.5
2017-Jun-13 06:01N 25°46' W 080°03'4 7.5
2017-Jun-13 05:31N 25°49' W 080°03'4 7.7
2017-Jun-13 05:00N 25°53' W 080°03'4 7.7
2017-Jun-13 04:30N 25°57' W 080°04'4 7.9
2017-Jun-13 04:01N 26°01' W 080°04'4 8.3
2017-Jun-13 03:31N 26°05' W 080°05'2 4.8
2017-Jun-13 03:01N 26°06' W 080°07'0 0.0
2017-Jun-13 02:30N 26°06' W 080°07'0 0.0
2017-Jun-13 02:00N 26°06' W 080°07'0 0.0
2017-Jun-13 01:30N 26°06' W 080°07'0 0.0
2017-Jun-13 01:00N 26°06' W 080°07'0 0.0
2017-Jun-13 00:30N 26°06' W 080°07'0 0.0
2017-Jun-13 00:00N 26°06' W 080°07'0 0.0
2017-Jun-12 23:30N 26°06' W 080°07'0 0.0
2017-Jun-12 23:00N 26°06' W 080°07'0 0.0
2017-Jun-12 22:30N 26°06' W 080°07'0 0.0
2017-Jun-12 22:00N 26°06' W 080°07'0 0.0
2017-Jun-12 21:30N 26°06' W 080°07'0 0.0
2017-Jun-12 21:00N 26°06' W 080°07'0 0.0
2017-Jun-12 20:29N 26°06' W 080°07'0 0.0
2017-Jun-12 19:59N 26°06' W 080°07'0 0.0
2017-Jun-12 19:29N 26°06' W 080°07'0 0.0
2017-Jun-12 18:59N 26°06' W 080°07'0 0.0
2017-Jun-12 18:29N 26°06' W 080°07'0 0.0
2017-Jun-12 17:59N 26°06' W 080°07'0 0.0
2017-Jun-12 17:29N 26°06' W 080°07'0 0.0
2017-Jun-12 16:59N 26°06' W 080°07'0 0.0
2017-Jun-12 16:29N 26°06' W 080°07'0 0.0
2017-Jun-12 15:59N 26°06' W 080°07'0 0.0
2017-Jun-12 15:29N 26°06' W 080°07'0 0.0
2017-Jun-12 14:59N 26°06' W 080°07'0 0.0
2017-Jun-12 14:29N 26°06' W 080°07'0 0.0
2017-Jun-12 13:23N 26°06' W 080°07'0 0.0
2017-Jun-12 12:53N 26°06' W 080°07'0 0.0
2017-Jun-12 12:23N 26°06' W 080°07'0 0.0
2017-Jun-12 11:53N 26°06' W 080°07'0 0.0
2017-Jun-12 11:23N 26°06' W 080°07'0 0.0
2017-Jun-12 10:56N 26°06' W 080°07'0 0.0
2017-Jun-12 10:26N 26°06' W 080°07'0 0.0
2017-Jun-12 09:56N 26°06' W 080°07'0 0.0
2017-Jun-12 09:26N 26°06' W 080°07'0 0.0
2017-Jun-12 08:56N 26°06' W 080°07'0 0.0
2017-Jun-12 08:26N 26°06' W 080°07'0 0.0
2017-Jun-12 07:56N 26°06' W 080°07'0 0.0
2017-Jun-12 07:26N 26°06' W 080°07'0 0.0
2017-Jun-12 06:59N 26°06' W 080°07'0 0.0
2017-Jun-12 06:29N 26°06' W 080°07'0 0.0
2017-Jun-12 05:59N 26°06' W 080°07'0 0.0
2017-Jun-12 05:29N 26°06' W 080°07'0 0.0
2017-Jun-12 04:56N 26°06' W 080°07'0 0.0
2017-Jun-12 04:29N 26°06' W 080°07'0 0.0
2017-Jun-12 03:59N 26°06' W 080°07'0 0.0
2017-Jun-12 03:29N 26°06' W 080°07'0 0.0
2017-Jun-12 03:01N 26°06' W 080°07'0 0.3
2017-Jun-12 02:31N 26°06' W 080°07'2 3.3
2017-Jun-12 02:01N 26°06' W 080°05'2 3.8
2017-Jun-12 01:31N 26°07' W 080°04'0 0.3
2017-Jun-12 00:58N 26°07' W 080°05'0 0.0
2017-Jun-12 00:28N 26°07' W 080°05'0 0.0
2017-Jun-11 23:58N 26°07' W 080°05'0 0.0
2017-Jun-11 23:28N 26°07' W 080°05'0 0.0
2017-Jun-11 22:58N 26°07' W 080°05'0 0.0
2017-Jun-11 22:16N 26°07' W 080°05'0 0.0
2017-Jun-11 21:58N 26°07' W 080°05'0 0.0
2017-Jun-11 21:31N 26°07' W 080°05'0 0.0
2017-Jun-11 21:01N 26°07' W 080°05'0 0.0
2017-Jun-11 20:31N 26°07' W 080°05'0 0.0
2017-Jun-11 20:01N 26°07' W 080°05'0 0.0
2017-Jun-11 19:30N 26°07' W 080°05'0 0.0
2017-Jun-11 19:00N 26°07' W 080°05'0 0.1
2017-Jun-11 18:30N 26°07' W 080°04'0 0.0
2017-Jun-11 18:00N 26°07' W 080°04'0 0.0
2017-Jun-11 17:30N 26°07' W 080°04'0 0.0
2017-Jun-11 17:00N 26°07' W 080°05'0 0.0
2017-Jun-11 16:30N 26°07' W 080°05'0 0.0
2017-Jun-11 16:00N 26°07' W 080°05'0 0.1
2017-Jun-11 15:30N 26°07' W 080°05'0 0.1
2017-Jun-11 15:00N 26°07' W 080°05'0 0.0
2017-Jun-11 14:00N 26°07' W 080°05'0 0.1
2017-Jun-11 13:30N 26°07' W 080°05'0 0.5
2017-Jun-11 13:00N 26°08' W 080°05'3 5.6
2017-Jun-11 12:30N 26°10' W 080°03'611.1
2017-Jun-11 12:00N 26°15' W 080°01'510.9
2017-Jun-11 11:31N 26°21' W 080°00'611.2
2017-Jun-11 11:00N 26°26' W 080°00'27 9.1
2017-Jun-11 08:01N 26°53' W 079°58'1 9.9
2017-Jun-11 07:57N 26°54' W 079°58'410.0
2017-Jun-11 07:31N 26°58' W 079°58'  

Dump ship's entire track history